createdAt,value
2018-11-12T00:01:06.084Z,6.30
2018-11-12T00:03:34.721Z,6.53
2018-11-12T00:06:05.573Z,6.93
2018-11-12T00:08:37.444Z,7.27
2018-11-12T00:11:11.027Z,7.17
2018-11-12T00:13:47.235Z,7.00
2018-11-12T00:16:21.523Z,7.33
2018-11-12T00:18:50.232Z,7.17
2018-11-12T00:21:18.863Z,7.10
2018-11-12T00:23:48.875Z,7.13
2018-11-12T00:26:17.329Z,7.30
2018-11-12T00:28:51.961Z,7.40
2018-11-12T00:31:20.478Z,6.87
2018-11-12T00:33:49.505Z,7.97
2018-11-12T00:36:19.961Z,8.00
2018-11-12T00:38:48.544Z,7.30
2018-11-12T00:41:28.077Z,7.77
2018-11-12T00:43:56.635Z,7.20
2018-11-12T00:46:35.697Z,7.70
2018-11-12T00:49:04.210Z,7.30
2018-11-12T00:51:33.667Z,7.50
2018-11-12T00:54:03.302Z,6.83
2018-11-12T00:56:35.123Z,6.53
2018-11-12T00:59:09.799Z,6.23
2018-11-12T01:01:38.534Z,6.20
2018-11-12T01:04:13.853Z,6.23
2018-11-12T01:06:44.345Z,5.73
2018-11-12T01:09:13.380Z,6.17
2018-11-12T01:11:42.952Z,5.83
2018-11-12T01:14:11.641Z,5.57
2018-11-12T01:16:40.347Z,5.40
2018-11-12T01:19:08.835Z,5.30
2018-11-12T01:21:38.552Z,5.37
2018-11-12T01:24:07.110Z,4.70
2018-11-12T01:26:36.575Z,5.13
2018-11-12T01:29:06.237Z,4.67
2018-11-12T01:31:46.662Z,4.73
2018-11-12T01:34:21.906Z,4.10
2018-11-12T01:36:54.308Z,4.33
2018-11-12T01:39:22.978Z,4.27
2018-11-12T01:41:52.470Z,4.10
2018-11-12T01:44:25.736Z,3.67
2018-11-12T01:47:00.062Z,3.90
2018-11-12T01:49:32.710Z,3.53
2018-11-12T01:52:06.052Z,4.00
2018-11-12T01:54:35.722Z,3.17
2018-11-12T01:57:04.362Z,3.50
2018-11-12T01:59:35.176Z,3.40
2018-11-12T02:02:03.861Z,3.30
2018-11-12T02:04:32.414Z,3.27
2018-11-12T02:07:01.108Z,3.27
2018-11-12T02:09:30.573Z,3.30
2018-11-12T02:12:00.104Z,3.30
2018-11-12T02:14:34.116Z,3.10
2018-11-12T02:17:08.741Z,3.57
2018-11-12T02:19:37.246Z,3.43
2018-11-12T02:22:12.218Z,3.20
2018-11-12T02:24:40.589Z,3.13
2018-11-12T02:27:08.965Z,3.80
2018-11-12T02:29:40.561Z,3.50
2018-11-12T02:32:12.499Z,3.23
2018-11-12T02:34:43.939Z,3.40
2018-11-12T02:37:19.049Z,3.43
2018-11-12T02:39:47.608Z,3.30
2018-11-12T02:42:19.123Z,3.47
2018-11-12T02:44:48.660Z,3.40
2018-11-12T02:47:20.682Z,3.17
2018-11-12T02:49:50.124Z,3.40
2018-11-12T02:52:18.768Z,3.40
2018-11-12T02:54:48.287Z,3.07
2018-11-12T02:57:17.840Z,3.50
2018-11-12T02:59:46.520Z,3.50
2018-11-12T03:02:15.989Z,3.30
2018-11-12T03:04:44.697Z,3.47
2018-11-12T03:07:15.069Z,3.33
2018-11-12T03:09:43.709Z,3.20
2018-11-12T03:12:12.406Z,3.47
2018-11-12T03:14:45.528Z,3.80
2018-11-12T03:17:14.289Z,3.73
2018-11-12T03:19:43.749Z,3.30
2018-11-12T03:22:16.139Z,3.43
2018-11-12T03:24:45.965Z,4.20
2018-11-12T03:27:18.551Z,3.77
2018-11-12T03:29:50.530Z,3.83
2018-11-12T03:32:19.151Z,3.23
2018-11-12T03:34:52.696Z,3.50
2018-11-12T03:37:22.278Z,3.47
2018-11-12T03:39:53.845Z,3.63
2018-11-12T03:42:27.984Z,3.60
2018-11-12T03:44:57.719Z,3.93
2018-11-12T03:47:38.019Z,3.20
2018-11-12T03:50:10.661Z,3.40
2018-11-12T03:52:45.801Z,3.20
2018-11-12T03:58:08.596Z,3.50
2018-11-12T04:00:38.962Z,3.30
2018-11-12T04:03:07.271Z,3.13
2018-11-12T04:05:35.894Z,3.30
2018-11-12T04:08:04.672Z,3.37
2018-11-12T04:10:33.266Z,3.60
2018-11-12T04:13:04.923Z,3.60
2018-11-12T04:15:37.018Z,3.57
2018-11-12T04:18:11.219Z,3.50
2018-11-12T04:20:43.198Z,3.77
2018-11-12T04:23:12.713Z,3.27
2018-11-12T04:25:42.220Z,3.57
2018-11-12T04:28:14.604Z,3.67
2018-11-12T04:30:43.258Z,3.40
2018-11-12T04:33:11.918Z,3.90
2018-11-12T04:35:46.006Z,3.70
2018-11-12T04:38:14.663Z,3.17
2018-11-12T04:40:59.458Z,3.53
2018-11-12T04:43:29.115Z,3.60
2018-11-12T04:46:01.764Z,3.83
2018-11-12T04:48:30.622Z,3.77
2018-11-12T04:51:00.334Z,3.67
2018-11-12T04:53:45.061Z,3.87
2018-11-12T04:56:13.686Z,4.00
2018-11-12T04:58:44.410Z,3.60
2018-11-12T05:01:13.930Z,4.00
2018-11-12T05:03:42.732Z,3.67
2018-11-12T05:06:17.220Z,4.17
2018-11-12T05:08:49.307Z,4.17
2018-11-12T05:11:22.153Z,4.00
2018-11-12T05:13:54.040Z,4.17
2018-11-12T05:16:30.379Z,4.17
2018-11-12T05:18:58.807Z,4.23
2018-11-12T05:21:28.358Z,4.63
2018-11-12T05:24:09.393Z,4.30
2018-11-12T05:26:38.161Z,4.60
2018-11-12T05:29:07.968Z,4.43
2018-11-12T05:31:36.674Z,4.80
2018-11-12T05:34:05.753Z,4.60
2018-11-12T05:36:34.309Z,4.20
2018-11-12T05:39:03.098Z,4.70
2018-11-12T05:41:31.681Z,4.27
2018-11-12T05:44:03.686Z,4.57
2018-11-12T05:46:33.153Z,4.70
2018-11-12T05:49:01.845Z,4.30
2018-11-12T05:51:30.575Z,4.30
2018-11-12T05:53:59.191Z,4.20
2018-11-12T05:56:27.921Z,3.93
2018-11-12T05:58:57.592Z,4.47
2018-11-12T06:01:31.623Z,3.73
2018-11-12T06:04:06.482Z,3.53
2018-11-12T06:06:34.934Z,4.40
2018-11-12T06:09:04.754Z,4.07
2018-11-12T06:11:38.914Z,4.20
2018-11-12T06:14:08.952Z,3.93
2018-11-12T06:16:37.480Z,4.30
2018-11-12T06:19:11.739Z,4.10
2018-11-12T06:21:40.182Z,4.07
2018-11-12T06:24:09.684Z,3.97
2018-11-12T06:26:38.424Z,4.20
2018-11-12T06:29:07.949Z,4.30
2018-11-12T06:31:36.560Z,4.30
2018-11-12T06:34:05.889Z,4.40
2018-11-12T06:36:34.492Z,3.90
2018-11-12T06:39:03.345Z,4.20
2018-11-12T06:41:36.290Z,4.50
2018-11-12T06:44:08.966Z,4.00
2018-11-12T06:46:41.124Z,4.40
2018-11-12T06:49:09.758Z,4.63
2018-11-12T06:51:41.362Z,4.50
2018-11-12T06:54:10.030Z,5.43
2018-11-12T06:56:41.121Z,4.93
2018-11-12T06:59:10.548Z,5.10
2018-11-12T07:01:40.013Z,4.20
2018-11-12T07:04:08.792Z,4.30
2018-11-12T07:06:37.827Z,4.50
2018-11-12T07:09:09.837Z,4.50
2018-11-12T07:11:38.632Z,4.00
2018-11-12T07:14:07.250Z,4.20
2018-11-12T07:16:37.106Z,5.10
2018-11-12T07:19:06.636Z,5.50
2018-11-12T07:21:35.028Z,4.60
2018-11-12T07:24:04.447Z,4.23
2018-11-12T07:26:33.216Z,5.03
2018-11-12T07:29:01.779Z,4.63
2018-11-12T07:31:30.595Z,4.73
2018-11-12T07:33:59.114Z,4.90
2018-11-12T07:36:27.881Z,5.43
2018-11-12T07:38:57.005Z,5.13
2018-11-12T07:41:25.707Z,5.63
2018-11-12T07:43:54.303Z,5.37
2018-11-12T07:46:23.038Z,5.20
2018-11-12T07:48:52.610Z,5.13
2018-11-12T07:51:21.262Z,5.23
2018-11-12T07:54:02.551Z,5.70
2018-11-12T07:56:36.975Z,5.97
2018-11-12T07:59:06.486Z,7.50
2018-11-12T08:01:35.171Z,5.70
2018-11-12T08:04:04.925Z,5.73
2018-11-12T08:06:38.906Z,5.57
2018-11-12T08:09:08.826Z,5.37
2018-11-12T08:11:44.580Z,5.70
2018-11-12T08:14:17.515Z,6.60
2018-11-12T08:16:47.034Z,6.70
2018-11-12T08:19:21.711Z,7.17
2018-11-12T08:21:51.242Z,7.03
2018-11-12T08:24:21.900Z,7.10
2018-11-12T08:26:50.469Z,7.67
2018-11-12T08:29:19.083Z,9.20
2018-11-12T08:31:47.861Z,9.27
2018-11-12T08:34:16.555Z,8.77
2018-11-12T08:37:02.444Z,7.87
2018-11-12T08:39:31.177Z,7.00
2018-11-12T08:41:59.860Z,6.43
2018-11-12T08:44:32.021Z,6.23
2018-11-12T08:47:06.718Z,6.30
2018-11-12T08:49:39.411Z,6.47
2018-11-12T08:52:08.955Z,5.80
2018-11-12T08:54:37.766Z,6.27
2018-11-12T08:57:06.164Z,6.43
2018-11-12T08:59:41.714Z,6.57
2018-11-12T09:02:12.082Z,6.20
2018-11-12T09:04:40.870Z,6.50
2018-11-12T09:07:21.176Z,6.50
2018-11-12T09:09:53.329Z,6.13
2018-11-12T09:12:24.088Z,6.57
2018-11-12T09:14:52.458Z,7.30
2018-11-12T09:17:24.720Z,7.10
2018-11-12T09:20:00.942Z,7.80
2018-11-12T09:22:29.741Z,7.83
2018-11-12T09:25:13.070Z,7.03
2018-11-12T09:27:44.897Z,7.50
2018-11-12T09:30:18.766Z,7.77
2018-11-12T09:32:47.402Z,8.20
2018-11-12T09:35:17.857Z,8.20
2018-11-12T09:37:47.953Z,8.23
2018-11-12T09:40:29.572Z,8.17
2018-11-12T09:42:58.287Z,8.17
2018-11-12T09:48:31.530Z,8.33
2018-11-12T09:54:05.565Z,8.80
2018-11-12T09:56:35.957Z,10.50
2018-11-12T09:59:04.795Z,10.87
2018-11-12T10:01:33.816Z,10.07
2018-11-12T10:04:02.852Z,9.20
2018-11-12T10:06:32.874Z,8.30
2018-11-12T10:09:02.258Z,8.70
2018-11-12T10:11:31.779Z,8.80
2018-11-12T10:14:02.987Z,9.30
2018-11-12T10:16:34.586Z,9.17
2018-11-12T10:19:06.186Z,9.30
2018-11-12T10:21:34.580Z,9.90
2018-11-12T10:24:03.267Z,10.50
2018-11-12T10:26:32.056Z,9.60
2018-11-12T10:29:00.710Z,9.97
2018-11-12T10:31:31.379Z,10.63
2018-11-12T10:34:00.933Z,11.10
2018-11-12T10:36:29.629Z,11.30
2018-11-12T10:39:06.842Z,12.00
2018-11-12T10:41:39.335Z,11.83
2018-11-12T10:44:08.077Z,13.20
2018-11-12T10:46:36.610Z,13.17
2018-11-12T10:49:08.648Z,13.60
2018-11-12T10:51:39.318Z,14.33
2018-11-12T10:54:08.467Z,14.07
2018-11-12T10:56:37.940Z,13.73
2018-11-12T10:59:06.726Z,13.90
2018-11-12T11:01:40.675Z,13.77
2018-11-12T11:04:19.632Z,13.53
2018-11-12T11:06:53.786Z,13.30
2018-11-12T11:09:23.708Z,12.37
2018-11-12T11:11:53.187Z,11.53
2018-11-12T11:14:21.946Z,9.40
2018-11-12T11:16:54.239Z,10.07
2018-11-12T11:19:26.612Z,9.20
2018-11-12T11:21:55.326Z,8.93
2018-11-12T11:24:23.913Z,8.63
2018-11-12T11:26:52.446Z,7.93
2018-11-12T11:29:27.552Z,8.43
2018-11-12T11:31:58.378Z,8.80
2018-11-12T11:34:33.925Z,8.07
2018-11-12T11:37:03.582Z,7.20
2018-11-12T11:39:38.679Z,7.57
2018-11-12T11:42:08.305Z,7.40
2018-11-12T11:44:43.079Z,7.57
2018-11-12T11:47:13.506Z,8.17
2018-11-12T11:49:43.452Z,7.60
2018-11-12T11:52:18.099Z,7.03
2018-11-12T11:54:46.579Z,7.80
2018-11-12T11:57:16.237Z,7.80
2018-11-12T11:59:50.485Z,7.10
2018-11-12T12:02:22.938Z,7.57
2018-11-12T12:04:53.561Z,8.23
2018-11-12T12:07:25.999Z,8.30
2018-11-12T12:09:55.485Z,7.93
2018-11-12T12:12:29.673Z,8.60
2018-11-12T12:14:58.184Z,7.90
2018-11-12T12:17:40.415Z,8.33
2018-11-12T12:20:14.123Z,8.40
2018-11-12T12:22:42.719Z,7.67
2018-11-12T12:25:15.614Z,8.03
2018-11-12T12:27:44.980Z,8.23
2018-11-12T12:30:17.574Z,8.40
2018-11-12T12:32:47.939Z,8.00
2018-11-12T12:35:23.513Z,8.23
2018-11-12T12:37:53.867Z,8.10
2018-11-12T12:40:26.597Z,7.30
2018-11-12T12:42:58.488Z,6.47
2018-11-12T12:45:36.949Z,6.70
2018-11-12T12:48:05.349Z,6.53
2018-11-12T12:50:38.021Z,6.63
2018-11-12T12:53:06.751Z,6.20
2018-11-12T12:55:35.197Z,6.37
2018-11-12T12:58:03.694Z,6.57
2018-11-12T13:00:39.687Z,7.03
2018-11-12T13:03:08.483Z,6.73
2018-11-12T13:05:37.251Z,6.77
2018-11-12T13:08:05.851Z,7.33
2018-11-12T13:10:34.607Z,7.80
2018-11-12T13:13:03.319Z,9.10
2018-11-12T13:15:35.567Z,9.53
2018-11-12T13:18:04.245Z,9.53
2018-11-12T13:20:32.950Z,9.93
2018-11-12T13:23:02.982Z,10.23
2018-11-12T13:25:33.619Z,8.43
2018-11-12T13:28:25.064Z,9.60
2018-11-12T13:30:58.947Z,8.50
2018-11-12T13:33:28.947Z,7.80
2018-11-12T13:35:58.963Z,8.87
2018-11-12T13:38:27.762Z,8.47
2018-11-12T13:40:58.300Z,8.77
2018-11-12T13:43:30.447Z,7.27
2018-11-12T13:45:59.148Z,7.47
2018-11-12T13:48:27.922Z,7.90
2018-11-12T13:51:03.638Z,8.00
2018-11-12T13:53:33.428Z,7.73
2018-11-12T13:56:02.135Z,7.83
2018-11-12T13:58:34.442Z,8.03
2018-11-12T14:01:03.242Z,8.70
2018-11-12T14:03:33.028Z,8.33
2018-11-12T14:06:01.651Z,8.47
2018-11-12T14:08:35.848Z,8.30
2018-11-12T14:11:04.185Z,9.07
2018-11-12T14:13:40.598Z,8.53
2018-11-12T14:16:09.070Z,9.97
2018-11-12T14:18:40.662Z,9.90
2018-11-12T14:21:09.451Z,10.37
2018-11-12T14:23:45.616Z,10.50
2018-11-12T14:26:19.012Z,9.00
2018-11-12T14:28:53.285Z,7.57
2018-11-12T14:31:29.268Z,7.83
2018-11-12T14:33:57.862Z,7.50
2018-11-12T14:36:26.383Z,7.70
2018-11-12T14:39:07.392Z,7.00
2018-11-12T14:41:36.076Z,7.43
2018-11-12T14:44:05.602Z,8.50
2018-11-12T14:46:36.381Z,9.17
2018-11-12T14:49:05.882Z,9.23
2018-11-12T14:51:34.527Z,10.40
2018-11-12T14:54:16.313Z,10.10
2018-11-12T14:56:50.503Z,10.00
2018-11-12T14:59:19.009Z,11.53
2018-11-12T15:01:47.738Z,12.13
2018-11-12T15:04:24.001Z,10.83
2018-11-12T15:06:58.763Z,11.17
2018-11-12T15:09:32.237Z,11.93
2018-11-12T15:12:06.123Z,10.83
2018-11-12T15:14:34.993Z,12.77
2018-11-12T15:17:05.671Z,11.03
2018-11-12T15:19:36.471Z,10.80
2018-11-12T15:22:08.339Z,11.43
2018-11-12T15:24:37.960Z,12.07
2018-11-12T15:27:07.319Z,13.40
2018-11-12T15:29:41.986Z,13.20
2018-11-12T15:32:16.188Z,12.57
2018-11-12T15:37:56.893Z,11.07
2018-11-12T15:40:26.508Z,10.90
2018-11-12T15:45:48.443Z,11.53
2018-11-12T15:48:17.930Z,11.80
2018-11-12T15:50:46.687Z,12.07
2018-11-12T15:53:15.318Z,11.50
2018-11-12T15:55:55.341Z,13.03
2018-11-12T15:58:23.864Z,12.10
2018-11-12T16:00:53.226Z,13.60
2018-11-12T16:03:26.054Z,13.37
2018-11-12T16:05:59.731Z,14.70
2018-11-12T16:08:35.107Z,14.23
2018-11-12T16:11:09.386Z,15.27
2018-11-12T16:13:38.140Z,12.77
2018-11-12T16:16:06.782Z,11.80
2018-11-12T16:18:35.531Z,12.50
2018-11-12T16:21:04.265Z,15.57
2018-11-12T16:23:32.942Z,12.53
2018-11-12T16:26:01.595Z,11.90
2018-11-12T16:28:30.210Z,11.53
2018-11-12T16:31:04.820Z,11.90
2018-11-12T16:33:35.354Z,11.10
2018-11-12T16:36:04.910Z,11.87
2018-11-12T16:38:33.616Z,10.20
2018-11-12T16:41:04.279Z,10.47
2018-11-12T16:43:32.839Z,10.10
2018-11-12T16:46:05.722Z,9.33
2018-11-12T16:48:35.202Z,10.47
2018-11-12T16:51:03.833Z,9.57
2018-11-12T16:53:32.537Z,9.47
2018-11-12T16:56:01.298Z,9.43
2018-11-12T16:58:32.751Z,10.23
2018-11-12T17:01:05.116Z,9.93
2018-11-12T17:03:34.662Z,9.70
2018-11-12T17:06:03.357Z,9.87
2018-11-12T17:08:34.101Z,12.37
2018-11-12T17:11:06.122Z,10.77
2018-11-12T17:13:34.774Z,11.47
2018-11-12T17:16:05.788Z,11.90
2018-11-12T17:18:34.197Z,11.83
2018-11-12T17:21:08.763Z,13.60
2018-11-12T17:23:37.298Z,14.90
2018-11-12T17:26:10.887Z,17.27
2018-11-12T17:28:39.615Z,16.20
2018-11-12T17:31:08.251Z,13.80
2018-11-12T17:33:37.031Z,13.13
2018-11-12T17:36:13.219Z,11.67
2018-11-12T17:38:45.855Z,11.93
2018-11-12T17:41:22.082Z,13.20
2018-11-12T17:43:54.227Z,13.13
2018-11-12T17:46:26.235Z,15.73
2018-11-12T17:48:54.827Z,15.07
2018-11-12T17:51:23.529Z,13.63
2018-11-12T17:53:52.308Z,14.33
2018-11-12T17:56:21.027Z,17.37
2018-11-12T17:58:49.586Z,17.70
2018-11-12T18:01:25.064Z,16.67
2018-11-12T18:03:57.612Z,16.03
2018-11-12T18:06:26.339Z,16.60
2018-11-12T18:08:58.294Z,16.30
2018-11-12T18:11:28.212Z,15.63
2018-11-12T18:13:56.860Z,14.53
2018-11-12T18:16:28.878Z,15.43
2018-11-12T18:18:57.528Z,13.90
2018-11-12T18:21:31.785Z,14.73
2018-11-12T18:24:00.289Z,14.27
2018-11-12T18:26:32.590Z,13.60
2018-11-12T18:29:08.874Z,13.03
2018-11-12T18:31:37.413Z,12.63
2018-11-12T18:34:06.539Z,13.20
2018-11-12T18:36:35.296Z,12.73
2018-11-12T18:39:04.684Z,12.17
2018-11-12T18:41:33.539Z,11.23
2018-11-12T18:44:07.583Z,12.40
2018-11-12T18:46:43.171Z,12.27
2018-11-12T18:49:18.057Z,11.13
2018-11-12T18:51:50.187Z,10.90
2018-11-12T18:54:22.675Z,12.37
2018-11-12T18:56:51.253Z,12.20
2018-11-12T18:59:19.990Z,13.57
2018-11-12T19:01:49.546Z,13.63
2018-11-12T19:04:18.179Z,13.43
2018-11-12T19:06:46.834Z,14.27
2018-11-12T19:09:15.536Z,13.70
2018-11-12T19:11:47.446Z,13.03
2018-11-12T19:14:18.264Z,13.27
2018-11-12T19:16:52.907Z,14.13
2018-11-12T19:19:25.060Z,13.40
2018-11-12T19:21:59.210Z,14.53
2018-11-12T19:24:27.748Z,14.57
2018-11-12T19:27:00.158Z,14.90
2018-11-12T19:29:28.774Z,15.67
2018-11-12T19:31:57.527Z,15.60
2018-11-12T19:34:26.966Z,14.90
2018-11-12T19:36:58.910Z,14.63
2018-11-12T19:39:40.718Z,14.03
2018-11-12T19:42:14.378Z,14.27
2018-11-12T19:44:48.549Z,14.87
2018-11-12T19:47:17.010Z,14.20
2018-11-12T19:49:46.069Z,13.17
2018-11-12T19:52:18.537Z,12.87
2018-11-12T19:54:52.696Z,13.70
2018-11-12T19:57:21.326Z,12.87
2018-11-12T19:59:49.868Z,13.50
2018-11-12T20:02:22.341Z,13.23
2018-11-12T20:04:50.973Z,13.30
2018-11-12T20:07:24.392Z,12.37
2018-11-12T20:09:55.099Z,12.90
2018-11-12T20:12:23.566Z,11.63
2018-11-12T20:14:53.062Z,11.83
2018-11-12T20:17:21.862Z,11.87
2018-11-12T20:19:53.778Z,11.47
2018-11-12T20:22:23.330Z,11.47
2018-11-12T20:24:51.957Z,11.60
2018-11-12T20:27:26.964Z,11.37
2018-11-12T20:29:55.419Z,11.17
2018-11-12T20:32:24.185Z,11.40
2018-11-12T20:34:53.007Z,10.43
2018-11-12T20:37:27.752Z,11.40
2018-11-12T20:39:56.380Z,10.97
2018-11-12T20:42:25.036Z,9.63
2018-11-12T20:44:53.766Z,9.60
2018-11-12T20:47:25.242Z,10.07
2018-11-12T20:49:55.118Z,10.43
2018-11-12T20:52:27.239Z,10.23
2018-11-12T20:55:00.219Z,9.67
2018-11-12T20:57:32.364Z,10.20
2018-11-12T21:00:16.334Z,10.70
2018-11-12T21:02:57.980Z,9.77
2018-11-12T21:05:35.132Z,10.70
2018-11-12T21:08:09.092Z,10.70
2018-11-12T21:10:41.002Z,10.47
2018-11-12T21:13:23.038Z,10.23
2018-11-12T21:15:53.177Z,11.03
2018-11-12T21:18:26.763Z,10.30
2018-11-12T21:20:56.684Z,10.73
2018-11-12T21:23:26.912Z,11.70
2018-11-12T21:25:56.356Z,12.00
2018-11-12T21:28:25.970Z,12.37
2018-11-12T21:30:54.700Z,12.67
2018-11-12T21:33:23.367Z,12.43
2018-11-12T21:35:53.146Z,11.77
2018-11-12T21:38:26.071Z,11.50
2018-11-12T21:40:55.904Z,11.80
2018-11-12T21:43:26.902Z,11.63
2018-11-12T21:45:55.136Z,11.60
2018-11-12T21:48:24.662Z,12.87
2018-11-12T21:50:55.454Z,12.40
2018-11-12T21:53:42.081Z,12.97
2018-11-12T21:56:18.508Z,11.67
2018-11-12T21:58:52.806Z,11.20
2018-11-12T22:01:22.659Z,11.00
2018-11-12T22:03:51.342Z,11.27
2018-11-12T22:06:19.955Z,11.33
2018-11-12T22:08:59.048Z,11.73
2018-11-12T22:11:27.539Z,11.63
2018-11-12T22:16:50.319Z,11.43
2018-11-12T22:19:19.872Z,12.10
2018-11-12T22:21:54.399Z,13.80
2018-11-12T22:24:24.930Z,14.13
2018-11-12T22:26:53.581Z,15.00
2018-11-12T22:29:25.853Z,15.53
2018-11-12T22:31:58.397Z,15.90
2018-11-12T22:34:32.016Z,17.37
2018-11-12T22:37:06.180Z,16.90
2018-11-12T22:39:34.879Z,17.20
2018-11-12T22:42:03.511Z,18.43
2018-11-12T22:44:32.130Z,17.73
2018-11-12T22:47:01.543Z,18.20
2018-11-12T22:49:34.489Z,17.43
2018-11-12T22:52:03.284Z,19.80
2018-11-12T22:54:33.073Z,19.87
2018-11-12T22:57:01.723Z,19.93
2018-11-12T22:59:30.416Z,20.67
2018-11-12T23:02:01.192Z,20.83
2018-11-12T23:04:30.001Z,21.47
2018-11-12T23:07:03.487Z,19.07
2018-11-12T23:09:35.854Z,19.93
2018-11-12T23:12:09.899Z,19.47
2018-11-12T23:14:43.435Z,20.43
2018-11-12T23:17:17.715Z,18.77
2018-11-12T23:19:46.705Z,17.97
2018-11-12T23:22:15.220Z,18.37
2018-11-12T23:24:44.023Z,17.07
2018-11-12T23:27:12.704Z,15.80
2018-11-12T23:29:41.315Z,15.47
2018-11-12T23:32:09.969Z,14.73
2018-11-12T23:34:38.683Z,14.43
2018-11-12T23:37:15.308Z,14.67
2018-11-12T23:39:45.925Z,14.20
2018-11-12T23:42:14.502Z,13.97
2018-11-12T23:44:49.972Z,14.27
2018-11-12T23:47:18.514Z,13.50
2018-11-12T23:49:47.122Z,14.17
2018-11-12T23:52:16.706Z,13.47
2018-11-12T23:54:45.388Z,13.37
2018-11-12T23:57:17.380Z,14.60
2018-11-12T23:59:46.036Z,13.43
